sensor_id;sensor_type;location;lat;lon;timestamp;pressure;altitude;pressure_sealevel;temperature;humidity
85462;BME280;75865;42.672;23.360;2024-03-02T00:00:31;94563.06;;;8.62;73.16
85462;BME280;75865;42.672;23.360;2024-03-02T00:02:58;94572.97;;;8.54;72.93
85462;BME280;75865;42.672;23.360;2024-03-02T00:05:25;94566.25;;;8.46;73.23
85462;BME280;75865;42.672;23.360;2024-03-02T00:07:56;94571.47;;;8.50;73.60
85462;BME280;75865;42.672;23.360;2024-03-02T00:10:35;94574.19;;;8.46;73.63
85462;BME280;75865;42.672;23.360;2024-03-02T00:13:03;94574.94;;;8.43;73.54
85462;BME280;75865;42.672;23.360;2024-03-02T00:15:39;94582.09;;;8.46;73.70
85462;BME280;75865;42.672;23.360;2024-03-02T00:18:10;94580.59;;;8.45;73.79
85462;BME280;75865;42.672;23.360;2024-03-02T00:20:38;94572.66;;;8.45;73.65
85462;BME280;75865;42.672;23.360;2024-03-02T00:23:07;94569.19;;;8.52;73.83
85462;BME280;75865;42.672;23.360;2024-03-02T00:25:42;94562.38;;;8.54;73.28
85462;BME280;75865;42.672;23.360;2024-03-02T00:28:24;94566.47;;;8.62;73.43
85462;BME280;75865;42.672;23.360;2024-03-02T00:30:56;94568.69;;;8.71;72.98
85462;BME280;75865;42.672;23.360;2024-03-02T00:33:26;94572.78;;;8.76;72.77
85462;BME280;75865;42.672;23.360;2024-03-02T00:35:54;94568.22;;;8.80;72.97
85462;BME280;75865;42.672;23.360;2024-03-02T00:38:21;94561.75;;;8.84;72.85
85462;BME280;75865;42.672;23.360;2024-03-02T00:40:49;94562.44;;;8.88;72.46
85462;BME280;75865;42.672;23.360;2024-03-02T00:46:04;94563.19;;;8.89;71.87
85462;BME280;75865;42.672;23.360;2024-03-02T00:48:31;94565.81;;;8.92;72.19
85462;BME280;75865;42.672;23.360;2024-03-02T00:50:58;94543.81;;;8.99;72.37
85462;BME280;75865;42.672;23.360;2024-03-02T00:53:26;94546.41;;;9.06;71.77
85462;BME280;75865;42.672;23.360;2024-03-02T00:55:53;94547.47;;;9.12;71.48
85462;BME280;75865;42.672;23.360;2024-03-02T00:58:20;94540.22;;;9.16;71.49
85462;BME280;75865;42.672;23.360;2024-03-02T01:00:46;94548.16;;;9.20;71.20
85462;BME280;75865;42.672;23.360;2024-03-02T01:03:15;94552.63;;;9.23;71.04
85462;BME280;75865;42.672;23.360;2024-03-02T01:05:42;94542.03;;;9.23;70.79
85462;BME280;75865;42.672;23.360;2024-03-02T01:08:10;94552.97;;;9.28;70.22
85462;BME280;75865;42.672;23.360;2024-03-02T01:10:37;94556.75;;;9.27;70.48
85462;BME280;75865;42.672;23.360;2024-03-02T01:13:04;94551.75;;;9.33;70.75
85462;BME280;75865;42.672;23.360;2024-03-02T01:15:30;94550.16;;;9.43;70.24
85462;BME280;75865;42.672;23.360;2024-03-02T01:17:57;94549.69;;;9.48;70.12
85462;BME280;75865;42.672;23.360;2024-03-02T01:20:24;94545.50;;;9.50;70.22
85462;BME280;75865;42.672;23.360;2024-03-02T01:22:51;94540.09;;;9.57;70.54
85462;BME280;75865;42.672;23.360;2024-03-02T01:25:18;94540.78;;;9.65;70.52
85462;BME280;75865;42.672;23.360;2024-03-02T01:27:45;94536.97;;;9.66;70.09
85462;BME280;75865;42.672;23.360;2024-03-02T01:30:15;94526.72;;;9.68;70.43
85462;BME280;75865;42.672;23.360;2024-03-02T01:35:28;94523.34;;;9.67;69.96
85462;BME280;75865;42.672;23.360;2024-03-02T01:37:55;94528.19;;;9.72;70.19
85462;BME280;75865;42.672;23.360;2024-03-02T01:40:22;94523.63;;;9.73;69.87
85462;BME280;75865;42.672;23.360;2024-03-02T01:42:53;94535.34;;;9.75;70.21
85462;BME280;75865;42.672;23.360;2024-03-02T01:45:29;94520.22;;;9.72;70.19
85462;BME280;75865;42.672;23.360;2024-03-02T01:47:56;94516.06;;;9.71;70.21
85462;BME280;75865;42.672;23.360;2024-03-02T01:50:31;94515.31;;;9.71;70.71
85462;BME280;75865;42.672;23.360;2024-03-02T01:52:59;94516.78;;;9.75;70.92
85462;BME280;75865;42.672;23.360;2024-03-02T01:55:26;94505.44;;;9.75;70.84
85462;BME280;75865;42.672;23.360;2024-03-02T01:57:55;94520.19;;;9.76;71.08
85462;BME280;75865;42.672;23.360;2024-03-02T02:00:23;94525.84;;;9.78;71.08
85462;BME280;75865;42.672;23.360;2024-03-02T02:02:54;94523.88;;;9.82;70.72
85462;BME280;75865;42.672;23.360;2024-03-02T02:05:21;94520.81;;;9.84;70.60
85462;BME280;75865;42.672;23.360;2024-03-02T02:07:49;94511.75;;;9.81;70.88
85462;BME280;75865;42.672;23.360;2024-03-02T02:10:16;94522.47;;;9.74;70.64
85462;BME280;75865;42.672;23.360;2024-03-02T02:12:43;94515.72;;;9.69;70.96
85462;BME280;75865;42.672;23.360;2024-03-02T02:15:25;94521.84;;;9.66;71.12
85462;BME280;75865;42.672;23.360;2024-03-02T02:17:56;94519.97;;;9.63;71.28
85462;BME280;75865;42.672;23.360;2024-03-02T02:20:24;94509.06;;;9.58;71.17
85462;BME280;75865;42.672;23.360;2024-03-02T02:22:55;94508.38;;;9.54;70.88
85462;BME280;75865;42.672;23.360;2024-03-02T02:25:22;94509.53;;;9.53;70.87
85462;BME280;75865;42.672;23.360;2024-03-02T02:27:49;94510.72;;;9.48;71.06
85462;BME280;75865;42.672;23.360;2024-03-02T02:30:25;94505.44;;;9.45;71.52
85462;BME280;75865;42.672;23.360;2024-03-02T02:32:53;94509.59;;;9.46;71.56
85462;BME280;75865;42.672;23.360;2024-03-02T02:35:20;94496.34;;;9.46;71.84
85462;BME280;75865;42.672;23.360;2024-03-02T02:37:47;94502.38;;;9.50;71.66
85462;BME280;75865;42.672;23.360;2024-03-02T02:40:14;94504.66;;;9.48;71.32
85462;BME280;75865;42.672;23.360;2024-03-02T02:42:42;94507.69;;;9.46;71.29
85462;BME280;75865;42.672;23.360;2024-03-02T02:45:09;94507.06;;;9.38;71.21
85462;BME280;75865;42.672;23.360;2024-03-02T02:47:37;94509.66;;;9.42;71.64
85462;BME280;75865;42.672;23.360;2024-03-02T02:50:07;94511.56;;;9.41;71.75
85462;BME280;75865;42.672;23.360;2024-03-02T02:52:34;94516.75;;;9.49;71.32
85462;BME280;75865;42.672;23.360;2024-03-02T02:55:04;94508.03;;;9.52;71.73
85462;BME280;75865;42.672;23.360;2024-03-02T02:57:34;94510.63;;;9.55;71.39
85462;BME280;75865;42.672;23.360;2024-03-02T03:00:07;94504.16;;;9.56;71.40
85462;BME280;75865;42.672;23.360;2024-03-02T03:02:38;94506.03;;;9.59;71.60
85462;BME280;75865;42.672;23.360;2024-03-02T03:05:06;94513.94;;;9.63;71.40
85462;BME280;75865;42.672;23.360;2024-03-02T03:07:33;94511.28;;;9.63;71.68
85462;BME280;75865;42.672;23.360;2024-03-02T03:10:01;94515.78;;;9.66;71.42
85462;BME280;75865;42.672;23.360;2024-03-02T03:12:28;94518.03;;;9.67;71.28
85462;BME280;75865;42.672;23.360;2024-03-02T03:14:55;94503.31;;;9.63;71.19
85462;BME280;75865;42.672;23.360;2024-03-02T03:17:22;94508.63;;;9.63;71.38
85462;BME280;75865;42.672;23.360;2024-03-02T03:19:50;94510.09;;;9.67;71.49
85462;BME280;75865;42.672;23.360;2024-03-02T03:22:17;94508.16;;;9.68;71.19
85462;BME280;75865;42.672;23.360;2024-03-02T03:24:43;94510.53;;;9.62;71.31
85462;BME280;75865;42.672;23.360;2024-03-02T03:27:10;94512.78;;;9.64;71.66
85462;BME280;75865;42.672;23.360;2024-03-02T03:29:40;94505.97;;;9.63;71.34
85462;BME280;75865;42.672;23.360;2024-03-02T03:32:07;94511.28;;;9.63;71.55
85462;BME280;75865;42.672;23.360;2024-03-02T03:34:34;94520.69;;;9.67;71.17
85462;BME280;75865;42.672;23.360;2024-03-02T03:37:01;94514.97;;;9.69;71.33
85462;BME280;75865;42.672;23.360;2024-03-02T03:39:28;94515.06;;;9.62;70.94
85462;BME280;75865;42.672;23.360;2024-03-02T03:41:55;94521.22;;;9.55;71.29
85462;BME280;75865;42.672;23.360;2024-03-02T03:44:22;94519.38;;;9.52;71.49
85462;BME280;75865;42.672;23.360;2024-03-02T03:46:49;94513.34;;;9.48;71.50
85462;BME280;75865;42.672;23.360;2024-03-02T03:49:16;94516.75;;;9.49;71.68
85462;BME280;75865;42.672;23.360;2024-03-02T03:51:43;94513.06;;;9.43;71.76
85462;BME280;75865;42.672;23.360;2024-03-02T03:54:10;94511.47;;;9.49;71.57
85462;BME280;75865;42.672;23.360;2024-03-02T03:56:37;94499.00;;;9.46;72.07
85462;BME280;75865;42.672;23.360;2024-03-02T03:59:04;94499.75;;;9.46;71.77
85462;BME280;75865;42.672;23.360;2024-03-02T04:01:31;94510.22;;;9.57;71.48
85462;BME280;75865;42.672;23.360;2024-03-02T04:03:58;94511.72;;;9.58;71.71
85462;BME280;75865;42.672;23.360;2024-03-02T04:06:25;94514.44;;;9.54;71.47
85462;BME280;75865;42.672;23.360;2024-03-02T04:08:52;94503.81;;;9.54;71.64
85462;BME280;75865;42.672;23.360;2024-03-02T04:11:19;94508.72;;;9.56;71.50
85462;BME280;75865;42.672;23.360;2024-03-02T04:13:45;94505.34;;;9.55;71.49
85462;BME280;75865;42.672;23.360;2024-03-02T04:16:12;94510.63;;;9.55;71.07
85462;BME280;75865;42.672;23.360;2024-03-02T04:18:39;94509.88;;;9.55;71.36
85462;BME280;75865;42.672;23.360;2024-03-02T04:21:06;94512.09;;;9.56;71.59
85462;BME280;75865;42.672;23.360;2024-03-02T04:23:33;94510.53;;;9.62;71.49
85462;BME280;75865;42.672;23.360;2024-03-02T04:25:59;94505.63;;;9.61;71.19
85462;BME280;75865;42.672;23.360;2024-03-02T04:28:26;94507.47;;;9.64;71.60
85462;BME280;75865;42.672;23.360;2024-03-02T04:30:53;94497.38;;;9.55;71.56
85462;BME280;75865;42.672;23.360;2024-03-02T04:33:20;94519.06;;;9.73;71.19
85462;BME280;75865;42.672;23.360;2024-03-02T04:35:47;94519.44;;;9.75;71.21
85462;BME280;75865;42.672;23.360;2024-03-02T04:38:13;94522.38;;;9.81;71.27
85462;BME280;75865;42.672;23.360;2024-03-02T04:40:40;94514.41;;;9.81;71.38
85462;BME280;75865;42.672;23.360;2024-03-02T04:43:07;94521.63;;;9.81;71.43
85462;BME280;75865;42.672;23.360;2024-03-02T04:45:39;94516.69;;;9.83;71.41
85462;BME280;75865;42.672;23.360;2024-03-02T04:48:06;94513.63;;;9.84;71.35
85462;BME280;75865;42.672;23.360;2024-03-02T04:50:33;94521.47;;;9.91;71.62
85462;BME280;75865;42.672;23.360;2024-03-02T04:53:00;94524.81;;;9.95;71.25
85462;BME280;75865;42.672;23.360;2024-03-02T04:55:26;94530.47;;;9.97;71.90
85462;BME280;75865;42.672;23.360;2024-03-02T04:57:53;94519.88;;;9.97;72.03
85462;BME280;75865;42.672;23.360;2024-03-02T05:00:23;94531.19;;;10.01;72.58
85462;BME280;75865;42.672;23.360;2024-03-02T05:02:50;94529.97;;;10.06;72.28
85462;BME280;75865;42.672;23.360;2024-03-02T05:05:18;94529.63;;;10.04;72.56
85462;BME280;75865;42.672;23.360;2024-03-02T05:07:44;94529.16;;;10.09;72.74
85462;BME280;75865;42.672;23.360;2024-03-02T05:10:11;94532.56;;;10.09;72.58
85462;BME280;75865;42.672;23.360;2024-03-02T05:12:38;94529.56;;;10.07;72.53
85462;BME280;75865;42.672;23.360;2024-03-02T05:15:15;94516.03;;;10.02;72.73
85462;BME280;75865;42.672;23.360;2024-03-02T05:17:42;94550.34;;;10.12;73.08
85462;BME280;75865;42.672;23.360;2024-03-02T05:20:12;94547.69;;;10.12;73.12
85462;BME280;75865;42.672;23.360;2024-03-02T05:22:39;94550.69;;;10.14;72.82
85462;BME280;75865;42.672;23.360;2024-03-02T05:25:07;94552.16;;;10.15;72.89
85462;BME280;75865;42.672;23.360;2024-03-02T05:27:34;94548.44;;;10.13;73.18
85462;BME280;75865;42.672;23.360;2024-03-02T05:30:01;94550.28;;;10.16;73.26
85462;BME280;75865;42.672;23.360;2024-03-02T05:32:28;94554.50;;;10.13;73.45
85462;BME280;75865;42.672;23.360;2024-03-02T05:34:55;94559.81;;;10.13;73.31
85462;BME280;75865;42.672;23.360;2024-03-02T05:37:21;94560.47;;;10.18;73.23
85462;BME280;75865;42.672;23.360;2024-03-02T05:39:48;94558.59;;;10.18;73.44
85462;BME280;75865;42.672;23.360;2024-03-02T05:42:16;94563.91;;;10.18;73.14
85462;BME280;75865;42.672;23.360;2024-03-02T05:44:43;94569.56;;;10.20;73.22
85462;BME280;75865;42.672;23.360;2024-03-02T05:47:10;94571.06;;;10.21;73.21
85462;BME280;75865;42.672;23.360;2024-03-02T05:49:37;94575.59;;;10.24;73.13
85462;BME280;75865;42.672;23.360;2024-03-02T05:52:04;94571.03;;;10.25;73.56
85462;BME280;75865;42.672;23.360;2024-03-02T05:54:30;94577.47;;;10.24;73.47
85462;BME280;75865;42.672;23.360;2024-03-02T05:56:57;94571.81;;;10.22;73.64
85462;BME280;75865;42.672;23.360;2024-03-02T05:59:43;94574.13;;;10.20;73.40
85462;BME280;75865;42.672;23.360;2024-03-02T06:02:11;94582.38;;;10.25;73.71
85462;BME280;75865;42.672;23.360;2024-03-02T06:04:37;94570.31;;;10.21;73.64
85462;BME280;75865;42.672;23.360;2024-03-02T06:07:05;94580.06;;;10.27;73.65
85462;BME280;75865;42.672;23.360;2024-03-02T06:09:32;94577.84;;;10.26;73.92
85462;BME280;75865;42.672;23.360;2024-03-02T06:11:59;94577.09;;;10.25;73.67
85462;BME280;75865;42.672;23.360;2024-03-02T06:14:25;94577.09;;;10.25;74.43
85462;BME280;75865;42.672;23.360;2024-03-02T06:16:52;94588.44;;;10.26;74.11
85462;BME280;75865;42.672;23.360;2024-03-02T06:19:19;94577.84;;;10.26;73.58
85462;BME280;75865;42.672;23.360;2024-03-02T06:21:46;94586.94;;;10.25;73.70
85462;BME280;75865;42.672;23.360;2024-03-02T06:24:12;94577.84;;;10.26;73.77
85462;BME280;75865;42.672;23.360;2024-03-02T06:26:39;94582.31;;;10.29;73.76
85462;BME280;75865;42.672;23.360;2024-03-02T06:29:06;94585.38;;;10.27;73.46
85462;BME280;75865;42.672;23.360;2024-03-02T06:31:37;94583.91;;;10.26;73.46
85462;BME280;75865;42.672;23.360;2024-03-02T06:34:04;94588.44;;;10.26;73.61
85462;BME280;75865;42.672;23.360;2024-03-02T06:36:31;94585.13;;;10.18;73.31
85462;BME280;75865;42.672;23.360;2024-03-02T06:38:58;94593.09;;;10.18;73.74
85462;BME280;75865;42.672;23.360;2024-03-02T06:41:25;94588.16;;;10.17;73.44
85462;BME280;75865;42.672;23.360;2024-03-02T06:43:53;94590.91;;;10.09;73.49
85462;BME280;75865;42.672;23.360;2024-03-02T06:46:26;94589.75;;;10.10;73.26
85462;BME280;75865;42.672;23.360;2024-03-02T06:48:53;94594.34;;;10.06;73.42
85462;BME280;75865;42.672;23.360;2024-03-02T06:51:20;94593.25;;;10.04;73.51
85462;BME280;75865;42.672;23.360;2024-03-02T06:53:46;94592.91;;;10.02;73.60
85462;BME280;75865;42.672;23.360;2024-03-02T06:56:13;94599.66;;;10.06;73.83
85462;BME280;75865;42.672;23.360;2024-03-02T06:58:40;94599.25;;;10.08;73.72
85462;BME280;75865;42.672;23.360;2024-03-02T07:01:07;94591.66;;;10.10;73.69
85462;BME280;75865;42.672;23.360;2024-03-02T07:03:34;94601.41;;;10.17;73.93
85462;BME280;75865;42.672;23.360;2024-03-02T07:06:01;94598.44;;;10.14;73.72
85462;BME280;75865;42.672;23.360;2024-03-02T07:08:28;94599.13;;;10.19;74.08
85462;BME280;75865;42.672;23.360;2024-03-02T07:10:55;94608.91;;;10.25;73.58
85462;BME280;75865;42.672;23.360;2024-03-02T07:13:21;94611.56;;;10.25;73.41
85462;BME280;75865;42.672;23.360;2024-03-02T07:15:48;94605.13;;;10.26;73.06
85462;BME280;75865;42.672;23.360;2024-03-02T07:18:21;94613.78;;;10.27;73.54
85462;BME280;75865;42.672;23.360;2024-03-02T07:20:48;94613.47;;;10.25;73.67
85462;BME280;75865;42.672;23.360;2024-03-02T07:23:16;94607.44;;;10.21;73.96
85462;BME280;75865;42.672;23.360;2024-03-02T07:25:43;94621.81;;;10.23;73.62
85462;BME280;75865;42.672;23.360;2024-03-02T07:28:12;94618.78;;;10.25;73.49
85462;BME280;75865;42.672;23.360;2024-03-02T07:30:39;94610.81;;;10.25;73.59
85462;BME280;75865;42.672;23.360;2024-03-02T07:33:06;94605.28;;;10.12;73.20
85462;BME280;75865;42.672;23.360;2024-03-02T07:35:33;94621.88;;;10.20;73.24
85462;BME280;75865;42.672;23.360;2024-03-02T07:38:00;94618.81;;;10.18;72.82
85462;BME280;75865;42.672;23.360;2024-03-02T07:40:27;94626.88;;;10.10;73.05
85462;BME280;75865;42.672;23.360;2024-03-02T07:42:54;94628.81;;;10.06;73.52
85462;BME280;75865;42.672;23.360;2024-03-02T07:45:21;94626.25;;;10.03;73.20
85462;BME280;75865;42.672;23.360;2024-03-02T07:47:48;94623.28;;;9.97;73.61
85462;BME280;75865;42.672;23.360;2024-03-02T07:50:16;94622.16;;;9.95;73.72
85462;BME280;75865;42.672;23.360;2024-03-02T07:52:43;94621.00;;;9.96;73.77
85462;BME280;75865;42.672;23.360;2024-03-02T07:55:10;94619.88;;;9.97;73.72
85462;BME280;75865;42.672;23.360;2024-03-02T07:57:36;94624.41;;;9.96;73.88
85462;BME280;75865;42.672;23.360;2024-03-02T08:00:04;94621.41;;;9.94;74.12
85462;BME280;75865;42.672;23.360;2024-03-02T08:02:31;94628.94;;;9.99;74.22
85462;BME280;75865;42.672;23.360;2024-03-02T08:04:57;94633.44;;;10.02;74.58
85462;BME280;75865;42.672;23.360;2024-03-02T08:07:24;94637.25;;;10.01;74.80
85462;BME280;75865;42.672;23.360;2024-03-02T08:09:51;94640.22;;;10.03;73.98
85462;BME280;75865;42.672;23.360;2024-03-02T08:12:18;94638.03;;;9.98;74.65
85462;BME280;75865;42.672;23.360;2024-03-02T08:14:46;94634.97;;;10.00;74.40
85462;BME280;75865;42.672;23.360;2024-03-02T08:17:13;94635.66;;;10.04;74.66
85462;BME280;75865;42.672;23.360;2024-03-02T08:19:39;94646.25;;;10.07;74.49
85462;BME280;75865;42.672;23.360;2024-03-02T08:22:06;94642.47;;;10.05;74.15
85462;BME280;75865;42.672;23.360;2024-03-02T08:24:33;94639.19;;;9.97;74.38
85462;BME280;75865;42.672;23.360;2024-03-02T08:27:00;94642.97;;;9.96;74.48
85462;BME280;75865;42.672;23.360;2024-03-02T08:29:27;94629.06;;;9.89;74.98
85462;BME280;75865;42.672;23.360;2024-03-02T08:31:54;94636.75;;;10.10;74.83
85462;BME280;75865;42.672;23.360;2024-03-02T08:34:21;94640.88;;;10.14;74.67
85462;BME280;75865;42.672;23.360;2024-03-02T08:36:48;94629.06;;;10.15;74.53
85462;BME280;75865;42.672;23.360;2024-03-02T08:39:15;94635.84;;;10.24;74.80
85462;BME280;75865;42.672;23.360;2024-03-02T08:41:44;94643.69;;;10.31;74.75
85462;BME280;75865;42.672;23.360;2024-03-02T08:44:12;94642.09;;;10.37;74.12
85462;BME280;75865;42.672;23.360;2024-03-02T08:46:39;94640.94;;;10.38;74.00
85462;BME280;75865;42.672;23.360;2024-03-02T08:49:06;94641.97;;;10.44;73.89
85462;BME280;75865;42.672;23.360;2024-03-02T08:51:34;94641.06;;;10.54;74.41
85462;BME280;75865;42.672;23.360;2024-03-02T08:54:00;94640.97;;;10.61;74.15
85462;BME280;75865;42.672;23.360;2024-03-02T08:56:27;94631.34;;;10.71;74.20
85462;BME280;75865;42.672;23.360;2024-03-02T08:58:54;94625.56;;;10.76;73.74
85462;BME280;75865;42.672;23.360;2024-03-02T09:01:21;94634.41;;;10.93;73.93
85462;BME280;75865;42.672;23.360;2024-03-02T09:03:49;94634.97;;;11.04;73.23
85462;BME280;75865;42.672;23.360;2024-03-02T09:06:16;94637.44;;;11.14;73.67
85462;BME280;75865;42.672;23.360;2024-03-02T09:08:48;94641.78;;;11.28;73.13
85462;BME280;75865;42.672;23.360;2024-03-02T09:11:18;94642.66;;;11.41;72.87
85462;BME280;75865;42.672;23.360;2024-03-02T09:13:45;94640.97;;;11.51;72.20
85462;BME280;75865;42.672;23.360;2024-03-02T09:16:11;94647.66;;;11.59;71.71
85462;BME280;75865;42.672;23.360;2024-03-02T09:18:38;94650.31;;;11.59;69.67
85462;BME280;75865;42.672;23.360;2024-03-02T09:21:05;94656.03;;;11.57;69.89
85462;BME280;75865;42.672;23.360;2024-03-02T09:23:33;94653.59;;;11.67;70.54
85462;BME280;75865;42.672;23.360;2024-03-02T09:26:00;94663.72;;;11.75;70.10
85462;BME280;75865;42.672;23.360;2024-03-02T09:28:27;94660.66;;;11.77;69.20
85462;BME280;75865;42.672;23.360;2024-03-02T09:30:53;94660.41;;;11.68;69.30
85462;BME280;75865;42.672;23.360;2024-03-02T09:33:23;94654.53;;;11.56;68.94
85462;BME280;75865;42.672;23.360;2024-03-02T09:35:50;94663.59;;;11.59;69.96
85462;BME280;75865;42.672;23.360;2024-03-02T09:38:20;94663.38;;;11.70;70.19
85462;BME280;75865;42.672;23.360;2024-03-02T09:40:47;94664.09;;;11.74;69.76
85462;BME280;75865;42.672;23.360;2024-03-02T09:43:14;94671.47;;;11.86;69.97
85462;BME280;75865;42.672;23.360;2024-03-02T09:45:40;94662.28;;;11.90;69.92
85462;BME280;75865;42.672;23.360;2024-03-02T09:48:07;94654.16;;;11.98;69.69
85462;BME280;75865;42.672;23.360;2024-03-02T09:50:34;94667.38;;;12.01;69.14
85462;BME280;75865;42.672;23.360;2024-03-02T09:53:01;94659.41;;;12.01;68.73
85462;BME280;75865;42.672;23.360;2024-03-02T09:55:28;94665.13;;;12.00;67.34
85462;BME280;75865;42.672;23.360;2024-03-02T09:57:55;94662.94;;;11.94;67.72
85462;BME280;75865;42.672;23.360;2024-03-02T10:00:22;94662.88;;;11.98;68.50
85462;BME280;75865;42.672;23.360;2024-03-02T10:02:49;94657.16;;;12.00;68.09
85462;BME280;75865;42.672;23.360;2024-03-02T10:05:27;94669.81;;;11.92;67.05
85462;BME280;75865;42.672;23.360;2024-03-02T10:08:00;94665.56;;;11.78;68.42
85462;BME280;75865;42.672;23.360;2024-03-02T10:10:38;94662.81;;;11.82;68.83
85462;BME280;75865;42.672;23.360;2024-03-02T10:13:11;94667.31;;;11.85;69.86
85462;BME280;75865;42.672;23.360;2024-03-02T10:15:39;94663.34;;;11.93;69.47
85462;BME280;75865;42.672;23.360;2024-03-02T10:18:10;94662.88;;;11.98;69.63
85462;BME280;75865;42.672;23.360;2024-03-02T10:20:42;94658.25;;;12.02;69.43
85462;BME280;75865;42.672;23.360;2024-03-02T10:23:14;94665.66;;;12.11;69.20
85462;BME280;75865;42.672;23.360;2024-03-02T10:25:42;94661.16;;;12.08;68.99
85462;BME280;75865;42.672;23.360;2024-03-02T10:28:23;94664.31;;;12.03;69.08
85462;BME280;75865;42.672;23.360;2024-03-02T10:30:50;94658.56;;;12.04;69.82
85462;BME280;75865;42.672;23.360;2024-03-02T10:33:19;94654.75;;;12.05;69.90
85462;BME280;75865;42.672;23.360;2024-03-02T10:35:48;94652.50;;;12.04;69.51
85462;BME280;75865;42.672;23.360;2024-03-02T10:38:16;94654.34;;;12.07;69.57
85462;BME280;75865;42.672;23.360;2024-03-02T10:40:47;94655.78;;;12.11;69.44
85462;BME280;75865;42.672;23.360;2024-03-02T10:43:15;94653.13;;;12.11;69.28
85462;BME280;75865;42.672;23.360;2024-03-02T10:45:42;94658.44;;;12.11;69.62
85462;BME280;75865;42.672;23.360;2024-03-02T10:48:09;94659.03;;;12.19;68.91
85462;BME280;75865;42.672;23.360;2024-03-02T10:50:36;94641.97;;;12.16;69.49
85462;BME280;75865;42.672;23.360;2024-03-02T10:53:03;94660.13;;;12.21;68.59
85462;BME280;75865;42.672;23.360;2024-03-02T10:55:32;94649.88;;;12.20;68.88
85462;BME280;75865;42.672;23.360;2024-03-02T10:58:00;94646.47;;;12.19;69.23
85462;BME280;75865;42.672;23.360;2024-03-02T11:00:34;94651.31;;;12.24;68.91
85462;BME280;75865;42.672;23.360;2024-03-02T11:03:05;94649.75;;;12.27;68.45
85462;BME280;75865;42.672;23.360;2024-03-02T11:05:36;94629.34;;;12.20;69.28
85462;BME280;75865;42.672;23.360;2024-03-02T11:08:07;94635.94;;;12.32;68.87
85462;BME280;75865;42.672;23.360;2024-03-02T11:10:41;94646.50;;;12.36;69.21
85462;BME280;75865;42.672;23.360;2024-03-02T11:13:11;94648.03;;;12.37;68.93
85462;BME280;75865;42.672;23.360;2024-03-02T11:15:40;94644.19;;;12.38;68.66
85462;BME280;75865;42.672;23.360;2024-03-02T11:18:08;94646.09;;;12.37;68.92
85462;BME280;75865;42.672;23.360;2024-03-02T11:20:39;94642.69;;;12.37;68.05
85462;BME280;75865;42.672;23.360;2024-03-02T11:23:08;94629.88;;;12.32;68.37
85462;BME280;75865;42.672;23.360;2024-03-02T11:25:35;94634.78;;;12.33;68.59
85462;BME280;75865;42.672;23.360;2024-03-02T11:28:04;94636.50;;;12.23;68.40
85462;BME280;75865;42.672;23.360;2024-03-02T11:35:29;94631.66;;;12.18;68.80
85462;BME280;75865;42.672;23.360;2024-03-02T11:37:56;94630.50;;;12.19;69.18
85462;BME280;75865;42.672;23.360;2024-03-02T11:40:25;94621.19;;;12.11;68.31
85462;BME280;75865;42.672;23.360;2024-03-02T11:42:53;94633.81;;;12.07;68.60
85462;BME280;75865;42.672;23.360;2024-03-02T11:45:24;94631.66;;;12.02;68.35
85462;BME280;75865;42.672;23.360;2024-03-02T11:47:51;94636.22;;;12.02;69.10
85462;BME280;75865;42.672;23.360;2024-03-02T11:50:46;94639.94;;;12.04;69.30
85462;BME280;75865;42.672;23.360;2024-03-02T11:53:14;94639.63;;;12.02;69.29
85462;BME280;75865;42.672;23.360;2024-03-02T11:55:40;94639.94;;;12.04;69.03
85462;BME280;75865;42.672;23.360;2024-03-02T11:58:07;94638.47;;;12.03;68.65
85462;BME280;75865;42.672;23.360;2024-03-02T12:00:34;94641.44;;;12.05;68.72
85462;BME280;75865;42.672;23.360;2024-03-02T12:03:04;94631.97;;;12.04;68.42
85462;BME280;75865;42.672;23.360;2024-03-02T12:05:33;94632.81;;;12.01;68.62
85462;BME280;75865;42.672;23.360;2024-03-02T12:08:02;94643.78;;;12.03;68.54
85462;BME280;75865;42.672;23.360;2024-03-02T12:10:30;94637.63;;;12.06;68.31
85462;BME280;75865;42.672;23.360;2024-03-02T12:15:29;94627.81;;;12.03;68.42
85462;BME280;75865;42.672;23.360;2024-03-02T12:17:57;94629.41;;;12.01;68.60
85462;BME280;75865;42.672;23.360;2024-03-02T12:20:25;94636.06;;;12.09;68.52
85462;BME280;75865;42.672;23.360;2024-03-02T12:22:53;94635.19;;;12.15;67.38
85462;BME280;75865;42.672;23.360;2024-03-02T12:25:22;94634.22;;;12.06;66.55
85462;BME280;75865;42.672;23.360;2024-03-02T12:27:52;94638.13;;;12.01;67.21
85462;BME280;75865;42.672;23.360;2024-03-02T12:30:20;94639.19;;;12.04;67.73
85462;BME280;75865;42.672;23.360;2024-03-02T12:32:47;94634.50;;;12.11;67.81
85462;BME280;75865;42.672;23.360;2024-03-02T12:35:14;94617.50;;;12.05;67.44
85462;BME280;75865;42.672;23.360;2024-03-02T12:40:15;94632.19;;;12.29;66.53
85462;BME280;75865;42.672;23.360;2024-03-02T12:42:45;94639.09;;;12.27;66.12
85462;BME280;75865;42.672;23.360;2024-03-02T12:45:13;94625.94;;;12.20;66.52
85462;BME280;75865;42.672;23.360;2024-03-02T12:47:41;94623.69;;;12.18;66.91
85462;BME280;75865;42.672;23.360;2024-03-02T12:50:10;94634.84;;;12.29;66.53
85462;BME280;75865;42.672;23.360;2024-03-02T12:52:37;94633.63;;;12.34;66.98
85462;BME280;75865;42.672;23.360;2024-03-02T12:55:05;94642.00;;;12.33;65.48
85462;BME280;75865;42.672;23.360;2024-03-02T12:57:33;94629.63;;;12.26;66.11
85462;BME280;75865;42.672;23.360;2024-03-02T13:00:04;94634.31;;;12.18;65.85
85462;BME280;75865;42.672;23.360;2024-03-02T13:02:36;94636.00;;;12.12;65.96
85462;BME280;75865;42.672;23.360;2024-03-02T13:05:06;94641.31;;;12.12;65.93
85462;BME280;75865;42.672;23.360;2024-03-02T13:07:38;94629.56;;;12.10;65.88
85462;BME280;75865;42.672;23.360;2024-03-02T13:10:06;94632.25;;;12.10;65.53
85462;BME280;75865;42.672;23.360;2024-03-02T13:12:35;94635.47;;;12.01;65.33
85462;BME280;75865;42.672;23.360;2024-03-02T13:15:03;94637.28;;;12.04;65.63